createdAt,value
2019-02-06T00:01:23.428Z,28.30
2019-02-06T00:03:53.632Z,38.27
2019-02-06T00:06:23.342Z,31.67
2019-02-06T00:08:53.366Z,33.07
2019-02-06T00:11:23.186Z,33.83
2019-02-06T00:13:53.076Z,34.90
2019-02-06T00:16:23.129Z,28.47
2019-02-06T00:18:52.907Z,28.37
2019-02-06T00:21:22.808Z,25.33
2019-02-06T00:23:52.609Z,29.23
2019-02-06T00:26:22.386Z,28.83
2019-02-06T00:28:52.286Z,34.47
2019-02-06T00:31:22.123Z,28.53
2019-02-06T00:33:51.829Z,29.80
2019-02-06T00:36:21.638Z,28.47
2019-02-06T00:38:52.833Z,28.47
2019-02-06T00:41:22.667Z,31.77
2019-02-06T00:43:52.486Z,24.80
2019-02-06T00:46:22.300Z,30.93
2019-02-06T00:48:52.145Z,30.63
2019-02-06T00:51:22.016Z,27.57
2019-02-06T00:53:51.774Z,29.20
2019-02-06T00:56:21.569Z,24.40
2019-02-06T00:58:51.349Z,27.07
2019-02-06T01:01:21.146Z,30.80
2019-02-06T01:03:51.945Z,29.30
2019-02-06T01:06:21.778Z,28.13
2019-02-06T01:08:51.665Z,27.70
2019-02-06T01:11:21.571Z,27.30
2019-02-06T01:13:51.338Z,28.33
2019-02-06T01:16:21.222Z,25.80
2019-02-06T01:18:51.048Z,32.03
2019-02-06T01:21:20.804Z,27.03
2019-02-06T01:23:50.500Z,27.17
2019-02-06T01:26:20.207Z,30.90
2019-02-06T01:28:50.195Z,30.83
2019-02-06T01:31:24.918Z,30.73
2019-02-06T01:33:54.622Z,29.47
2019-02-06T01:36:24.759Z,27.13
2019-02-06T01:38:54.778Z,29.00
2019-02-06T01:41:24.607Z,25.57
2019-02-06T01:43:54.305Z,32.00
2019-02-06T01:46:24.154Z,27.63
2019-02-06T01:48:53.836Z,26.97
2019-02-06T01:51:24.108Z,21.80
2019-02-06T01:53:54.071Z,23.90
2019-02-06T01:56:24.814Z,23.53
2019-02-06T01:58:54.582Z,23.37
2019-02-06T02:01:24.338Z,26.07
2019-02-06T02:03:54.334Z,22.30
2019-02-06T02:06:27.682Z,27.87
2019-02-06T02:09:00.646Z,26.37
2019-02-06T02:11:31.878Z,21.23
2019-02-06T02:14:01.635Z,17.83
2019-02-06T02:16:31.404Z,23.77
2019-02-06T02:19:01.242Z,24.93
2019-02-06T02:21:30.951Z,20.70
2019-02-06T02:24:00.834Z,23.17
2019-02-06T02:26:30.643Z,20.97
2019-02-06T02:29:00.366Z,21.17
2019-02-06T02:31:30.264Z,25.37
2019-02-06T02:34:02.090Z,22.40
2019-02-06T02:36:31.867Z,21.33
2019-02-06T02:39:01.626Z,23.47
2019-02-06T02:41:32.636Z,21.37
2019-02-06T02:44:02.810Z,19.60
2019-02-06T02:46:33.590Z,18.27
2019-02-06T02:49:03.317Z,24.50
2019-02-06T02:51:33.033Z,26.97
2019-02-06T02:54:02.811Z,21.83
2019-02-06T02:56:32.520Z,21.30
2019-02-06T02:59:02.546Z,23.10
2019-02-06T03:01:50.116Z,21.30
2019-02-06T03:04:24.612Z,24.10
2019-02-06T03:06:54.380Z,24.03
2019-02-06T03:09:24.174Z,22.43
2019-02-06T03:11:54.299Z,22.97
2019-02-06T03:14:23.998Z,28.90
2019-02-06T03:16:53.714Z,20.93
2019-02-06T03:19:23.423Z,22.03
2019-02-06T03:21:53.190Z,23.70
2019-02-06T03:24:33.518Z,25.13
2019-02-06T03:27:03.277Z,25.47
2019-02-06T03:29:32.994Z,17.80
2019-02-06T03:32:02.820Z,25.40
2019-02-06T03:34:33.772Z,25.60
2019-02-06T03:37:03.604Z,23.03
2019-02-06T03:39:33.723Z,23.67
2019-02-06T03:42:03.469Z,19.50
2019-02-06T03:44:33.169Z,21.60
2019-02-06T03:47:02.957Z,23.17
2019-02-06T03:49:32.849Z,20.00
2019-02-06T03:52:02.614Z,20.27
2019-02-06T03:54:33.938Z,24.73
2019-02-06T03:57:03.766Z,24.03
2019-02-06T03:59:33.525Z,21.00
2019-02-06T04:02:03.322Z,26.97
2019-02-06T04:04:33.010Z,24.13
2019-02-06T04:07:02.694Z,21.60
2019-02-06T04:09:32.751Z,20.93
2019-02-06T04:12:02.510Z,28.07
2019-02-06T04:14:44.020Z,23.13
2019-02-06T04:17:13.699Z,23.10
2019-02-06T04:19:43.582Z,24.20
2019-02-06T04:22:13.393Z,27.40
2019-02-06T04:24:43.235Z,27.73
2019-02-06T04:27:13.018Z,27.37
2019-02-06T04:29:42.716Z,29.53
2019-02-06T04:32:12.469Z,33.77
2019-02-06T04:34:42.242Z,36.67
2019-02-06T04:37:12.051Z,35.60
2019-02-06T04:39:41.726Z,30.53
2019-02-06T04:42:11.425Z,28.37
2019-02-06T04:44:41.295Z,35.27
2019-02-06T04:47:11.049Z,22.17
2019-02-06T04:49:40.772Z,31.07
2019-02-06T04:52:10.587Z,32.97
2019-02-06T04:54:51.937Z,30.33
2019-02-06T04:57:21.607Z,32.30
2019-02-06T04:59:51.326Z,38.83
2019-02-06T05:02:21.147Z,38.70
2019-02-06T05:04:50.904Z,31.23
2019-02-06T05:07:20.667Z,42.03
2019-02-06T05:09:50.375Z,35.23
2019-02-06T05:12:20.155Z,38.80
2019-02-06T05:14:49.930Z,44.77
2019-02-06T05:17:19.729Z,39.13
2019-02-06T05:19:49.434Z,42.80
2019-02-06T05:22:19.227Z,36.20
2019-02-06T05:24:48.932Z,50.23
2019-02-06T05:27:18.614Z,38.13
2019-02-06T05:29:48.417Z,42.13
2019-02-06T05:32:18.110Z,46.10
2019-02-06T05:34:47.810Z,32.50
2019-02-06T05:37:17.583Z,39.07
2019-02-06T05:39:47.354Z,38.67
2019-02-06T05:42:17.136Z,43.30
2019-02-06T05:44:46.910Z,45.77
2019-02-06T05:47:16.588Z,41.00
2019-02-06T05:49:46.294Z,46.10
2019-02-06T05:52:15.983Z,53.47
2019-02-06T05:54:45.762Z,41.03
2019-02-06T05:57:15.798Z,42.73
2019-02-06T05:59:45.555Z,52.40
2019-02-06T06:02:15.336Z,53.13
2019-02-06T06:04:45.386Z,54.13
2019-02-06T06:07:15.342Z,45.80
2019-02-06T06:09:45.098Z,47.03
2019-02-06T06:12:14.784Z,50.73
2019-02-06T06:14:44.615Z,49.77
2019-02-06T06:17:15.375Z,63.57
2019-02-06T06:19:45.351Z,49.23
2019-02-06T06:22:15.121Z,60.60
2019-02-06T06:24:44.984Z,50.47
2019-02-06T06:27:14.726Z,40.90
2019-02-06T06:29:44.434Z,51.10
2019-02-06T06:32:14.173Z,40.03
2019-02-06T06:34:44.355Z,49.37
2019-02-06T06:37:14.078Z,47.67
2019-02-06T06:39:43.839Z,45.40
2019-02-06T06:42:13.844Z,41.87
2019-02-06T06:44:43.638Z,48.93
2019-02-06T06:47:13.398Z,47.43
2019-02-06T06:49:43.400Z,49.40
2019-02-06T06:52:13.186Z,49.50
2019-02-06T06:54:43.110Z,43.80
2019-02-06T06:57:12.970Z,51.57
2019-02-06T06:59:42.898Z,57.47
2019-02-06T07:02:12.826Z,53.93
2019-02-06T07:04:42.611Z,53.43
2019-02-06T07:07:12.318Z,40.83
2019-02-06T07:09:42.026Z,48.17
2019-02-06T07:12:11.800Z,49.47
2019-02-06T07:14:41.546Z,47.13
2019-02-06T07:17:11.226Z,54.90
2019-02-06T07:19:40.914Z,57.07
2019-02-06T07:22:10.669Z,56.43
2019-02-06T07:24:40.442Z,48.87
2019-02-06T07:27:10.218Z,48.77
2019-02-06T07:29:41.022Z,58.00
2019-02-06T07:32:11.285Z,53.17
2019-02-06T07:34:41.047Z,53.00
2019-02-06T07:37:11.020Z,62.70
2019-02-06T07:39:45.455Z,64.83
2019-02-06T07:42:15.948Z,48.17
2019-02-06T07:44:45.754Z,42.37
2019-02-06T07:47:15.900Z,49.70
2019-02-06T07:49:45.597Z,52.20
2019-02-06T07:52:15.406Z,44.47
2019-02-06T07:54:45.211Z,52.30
2019-02-06T07:57:16.145Z,45.47
2019-02-06T07:59:45.941Z,52.57
2019-02-06T08:02:15.635Z,41.93
2019-02-06T08:04:49.610Z,59.10
2019-02-06T08:07:19.318Z,45.70
2019-02-06T08:09:49.198Z,56.63
2019-02-06T08:12:18.974Z,56.77
2019-02-06T08:14:49.266Z,56.87
2019-02-06T08:17:19.135Z,49.10
2019-02-06T08:19:48.897Z,61.67
2019-02-06T08:22:18.752Z,59.43
2019-02-06T08:24:48.447Z,60.17
2019-02-06T08:27:18.218Z,52.03
2019-02-06T08:29:48.393Z,59.57
2019-02-06T08:32:18.094Z,51.43
2019-02-06T08:34:47.798Z,58.10
2019-02-06T08:37:17.486Z,47.63
2019-02-06T08:39:47.191Z,55.27
2019-02-06T08:42:17.026Z,45.33
2019-02-06T08:44:47.055Z,47.90
2019-02-06T08:47:16.758Z,52.07
2019-02-06T08:49:46.521Z,41.90
2019-02-06T08:52:16.289Z,49.77
2019-02-06T08:54:45.988Z,52.17
2019-02-06T08:57:15.759Z,51.43
2019-02-06T08:59:45.975Z,58.80
2019-02-06T09:02:15.954Z,56.93
2019-02-06T09:04:55.493Z,50.30
2019-02-06T09:07:17.218Z,64.60
2019-02-06T09:09:46.987Z,43.97
2019-02-06T09:12:16.835Z,47.57
2019-02-06T09:14:46.730Z,48.30
2019-02-06T09:17:16.641Z,45.83
2019-02-06T09:19:46.355Z,57.53
2019-02-06T09:22:16.065Z,54.20
2019-02-06T09:24:45.948Z,47.30
2019-02-06T09:27:15.735Z,51.70
2019-02-06T09:29:45.460Z,52.70
2019-02-06T09:32:15.138Z,46.87
2019-02-06T09:34:44.970Z,46.27
2019-02-06T09:37:14.664Z,60.47
2019-02-06T09:39:44.418Z,46.17
2019-02-06T09:42:14.109Z,52.37
2019-02-06T09:44:43.790Z,48.90
2019-02-06T09:47:13.798Z,34.13
2019-02-06T09:49:43.571Z,49.07
2019-02-06T09:52:13.357Z,42.10
2019-02-06T09:54:44.166Z,53.80
2019-02-06T09:57:13.870Z,41.03
2019-02-06T09:59:43.737Z,45.73
2019-02-06T10:02:13.506Z,47.10
2019-02-06T10:04:43.199Z,44.20
2019-02-06T10:07:13.046Z,48.40
2019-02-06T10:09:42.951Z,41.53
2019-02-06T10:12:12.735Z,32.60
2019-02-06T10:14:42.422Z,39.13
2019-02-06T10:17:12.190Z,34.03
2019-02-06T10:19:42.537Z,47.97
2019-02-06T10:22:12.465Z,38.40
2019-02-06T10:24:42.208Z,46.87
2019-02-06T10:27:12.330Z,45.23
2019-02-06T10:29:42.050Z,39.67
2019-02-06T10:32:11.876Z,50.63
2019-02-06T10:34:41.726Z,44.07
2019-02-06T10:37:11.550Z,63.37
2019-02-06T10:39:41.324Z,40.77
2019-02-06T10:42:11.579Z,47.83
2019-02-06T10:44:41.334Z,41.07
2019-02-06T10:47:11.186Z,45.53
2019-02-06T10:49:40.876Z,55.30
2019-02-06T10:52:10.789Z,49.67
2019-02-06T10:54:40.555Z,44.27
2019-02-06T10:57:10.636Z,48.13
2019-02-06T10:59:40.335Z,48.87
2019-02-06T11:02:10.250Z,40.03
2019-02-06T11:04:39.970Z,44.57
2019-02-06T11:07:09.803Z,36.00
2019-02-06T11:09:46.086Z,35.40
2019-02-06T11:12:10.974Z,31.43
2019-02-06T11:14:40.815Z,40.07
2019-02-06T11:17:10.594Z,34.37
2019-02-06T11:19:43.042Z,36.37
2019-02-06T11:22:11.945Z,35.33
2019-02-06T11:24:41.634Z,33.50
2019-02-06T11:27:11.503Z,30.27
2019-02-06T11:29:41.367Z,26.93
2019-02-06T11:32:11.162Z,26.80
2019-02-06T11:34:40.858Z,25.37
2019-02-06T11:37:10.674Z,24.47
2019-02-06T11:39:40.439Z,28.67
2019-02-06T11:42:10.250Z,28.67
2019-02-06T11:44:39.950Z,30.13
2019-02-06T11:47:09.651Z,23.07
2019-02-06T11:49:41.526Z,30.00
2019-02-06T11:52:11.380Z,22.03
2019-02-06T11:54:41.577Z,24.00
2019-02-06T11:57:11.351Z,25.30
2019-02-06T11:59:41.071Z,18.97
2019-02-06T12:02:10.912Z,22.57
2019-02-06T12:04:40.691Z,22.47
2019-02-06T12:07:10.535Z,20.27
2019-02-06T12:09:40.627Z,25.60
2019-02-06T12:12:11.374Z,26.30
2019-02-06T12:14:41.126Z,18.23
2019-02-06T12:17:10.906Z,26.87
2019-02-06T12:19:40.750Z,25.90
2019-02-06T12:22:10.550Z,26.60
2019-02-06T12:24:40.698Z,19.37
2019-02-06T12:27:10.559Z,20.93
2019-02-06T12:29:40.294Z,17.87
2019-02-06T12:32:10.156Z,23.53
2019-02-06T12:34:39.886Z,20.87
2019-02-06T12:37:10.674Z,21.83
2019-02-06T12:39:40.842Z,14.77
2019-02-06T12:42:10.782Z,18.27
2019-02-06T12:44:40.502Z,19.90
2019-02-06T12:47:10.231Z,17.13
2019-02-06T12:49:40.006Z,15.87
2019-02-06T12:52:09.939Z,16.13
2019-02-06T12:54:39.789Z,14.87
2019-02-06T12:57:09.998Z,18.07
2019-02-06T12:59:39.887Z,13.97
2019-02-06T13:02:09.842Z,14.70
2019-02-06T13:04:39.625Z,18.17
2019-02-06T13:07:09.450Z,14.13
2019-02-06T13:09:39.290Z,14.20
2019-02-06T13:12:09.393Z,13.17
2019-02-06T13:14:39.130Z,15.10
2019-02-06T13:17:08.925Z,21.67
2019-02-06T13:19:38.682Z,14.20
2019-02-06T13:22:08.450Z,19.17
2019-02-06T13:24:38.150Z,16.27
2019-02-06T13:27:08.301Z,15.67
2019-02-06T13:29:38.130Z,14.57
2019-02-06T13:32:07.980Z,15.27
2019-02-06T13:34:37.838Z,16.83
2019-02-06T13:37:07.519Z,14.40
2019-02-06T13:39:37.291Z,17.93
2019-02-06T13:42:07.071Z,13.47
2019-02-06T13:44:36.851Z,15.30
2019-02-06T13:47:06.776Z,17.50
2019-02-06T13:49:36.634Z,18.57
2019-02-06T13:52:06.475Z,19.67
2019-02-06T13:54:36.243Z,19.70
2019-02-06T13:57:06.014Z,23.83
2019-02-06T13:59:35.705Z,20.03
2019-02-06T14:02:05.666Z,19.97
2019-02-06T14:04:35.498Z,24.60
2019-02-06T14:07:05.467Z,21.70
2019-02-06T14:09:35.678Z,23.97
2019-02-06T14:12:05.622Z,25.23
2019-02-06T14:14:35.362Z,21.80
2019-02-06T14:17:05.279Z,20.50
2019-02-06T14:19:35.051Z,21.73
2019-02-06T14:22:04.927Z,24.30
2019-02-06T14:24:44.332Z,25.40
2019-02-06T14:27:35.874Z,26.37
2019-02-06T14:30:51.558Z,27.10
2019-02-06T14:33:59.746Z,25.90
2019-02-06T14:37:20.278Z,29.37
2019-02-06T14:40:05.191Z,26.50
2019-02-06T14:43:00.626Z,25.23
2019-02-06T14:46:07.237Z,21.40
2019-02-06T14:48:54.735Z,19.93
2019-02-06T14:51:57.697Z,18.03
2019-02-06T14:55:11.791Z,22.93
2019-02-06T14:58:42.341Z,25.20
2019-02-06T15:01:37.930Z,27.37
2019-02-06T15:04:40.722Z,20.00
2019-02-06T15:07:38.606Z,24.43
2019-02-06T15:10:52.100Z,21.83
2019-02-06T15:14:08.443Z,19.50
2019-02-06T15:17:22.856Z,21.77
2019-02-06T15:20:24.951Z,20.73
2019-02-06T15:23:41.014Z,23.20
2019-02-06T15:26:47.794Z,25.17
2019-02-06T15:29:42.650Z,25.87
2019-02-06T15:33:00.066Z,27.00
2019-02-06T15:36:20.302Z,21.70
2019-02-06T15:39:30.326Z,24.50
2019-02-06T15:42:21.973Z,23.07
2019-02-06T15:45:20.686Z,26.37
2019-02-06T15:48:30.986Z,17.33
2019-02-06T15:51:29.110Z,17.00
2019-02-06T15:54:29.522Z,18.53
2019-02-06T15:57:34.130Z,20.23
2019-02-06T16:00:39.132Z,18.63
2019-02-06T16:03:59.402Z,18.87
2019-02-06T16:06:51.231Z,12.87
2019-02-06T16:09:58.065Z,19.60
2019-02-06T16:13:13.367Z,12.37
2019-02-06T16:16:05.186Z,12.23
2019-02-06T16:19:02.828Z,11.03
2019-02-06T16:21:53.565Z,14.27
2019-02-06T16:24:32.986Z,12.80
2019-02-06T16:27:19.035Z,12.50
2019-02-06T16:30:36.999Z,13.03
2019-02-06T16:33:50.899Z,12.87
2019-02-06T16:36:33.905Z,10.87
2019-02-06T16:39:47.051Z,11.43
2019-02-06T16:42:49.163Z,10.70
2019-02-06T16:46:08.280Z,14.63
2019-02-06T16:49:26.387Z,12.07
2019-02-06T16:52:14.467Z,13.67
2019-02-06T16:55:26.809Z,11.93
2019-02-06T16:58:28.364Z,12.83
2019-02-06T17:01:38.750Z,10.10
2019-02-06T17:05:08.691Z,9.00
2019-02-06T17:08:07.594Z,8.73
2019-02-06T17:11:13.752Z,10.80
2019-02-06T17:13:57.544Z,15.20
2019-02-06T17:16:39.805Z,13.33
2019-02-06T17:19:56.603Z,10.07
2019-02-06T17:23:05.730Z,13.43
2019-02-06T17:26:12.034Z,12.20
2019-02-06T17:28:51.155Z,12.80
2019-02-06T17:31:58.142Z,13.27
2019-02-06T17:34:53.279Z,10.27
2019-02-06T17:37:38.742Z,14.00
2019-02-06T17:40:39.034Z,13.80
2019-02-06T17:43:35.034Z,12.77
2019-02-06T17:46:36.710Z,8.97
2019-02-06T17:49:45.693Z,13.00
2019-02-06T17:52:40.009Z,10.40
2019-02-06T17:55:20.630Z,11.10
2019-02-06T17:57:58.038Z,12.30
2019-02-06T18:00:31.696Z,12.30
2019-02-06T18:03:03.378Z,10.27
2019-02-06T18:05:34.144Z,11.00
2019-02-06T18:08:05.498Z,14.67
2019-02-06T18:10:35.407Z,12.67
2019-02-06T18:13:05.915Z,18.87
2019-02-06T18:15:35.723Z,12.93
2019-02-06T18:18:06.131Z,11.80
2019-02-06T18:20:36.081Z,11.63
2019-02-06T18:23:07.076Z,11.67
2019-02-06T18:25:36.890Z,14.73
2019-02-06T18:28:06.869Z,11.67
2019-02-06T18:30:37.367Z,14.53
2019-02-06T18:33:07.390Z,11.07
2019-02-06T18:35:37.232Z,13.37
2019-02-06T18:38:08.964Z,9.53
2019-02-06T18:40:40.204Z,11.97
2019-02-06T18:43:10.130Z,11.97
2019-02-06T18:45:40.045Z,13.03
2019-02-06T18:48:10.942Z,12.63
2019-02-06T18:50:42.233Z,13.40
2019-02-06T18:53:12.182Z,14.67
2019-02-06T18:55:42.090Z,12.30
2019-02-06T18:58:11.938Z,10.77
2019-02-06T19:00:41.752Z,15.17
2019-02-06T19:03:16.122Z,12.83
2019-02-06T19:05:46.212Z,13.70
2019-02-06T19:08:16.069Z,14.97
2019-02-06T19:10:46.090Z,11.43
2019-02-06T19:13:16.455Z,16.93
2019-02-06T19:15:55.909Z,13.53
2019-02-06T19:18:17.726Z,14.47
2019-02-06T19:20:47.652Z,10.80
2019-02-06T19:23:17.429Z,11.60
2019-02-06T19:25:47.298Z,11.17
2019-02-06T19:28:17.339Z,20.00
2019-02-06T19:30:47.251Z,17.57
2019-02-06T19:33:17.366Z,13.93
2019-02-06T19:35:47.406Z,15.90
2019-02-06T19:38:17.587Z,14.37
2019-02-06T19:40:47.390Z,14.03
2019-02-06T19:43:17.642Z,17.40
2019-02-06T19:45:47.451Z,14.17
2019-02-06T19:48:19.057Z,17.50
2019-02-06T19:50:48.915Z,14.80
2019-02-06T19:53:18.610Z,16.07
2019-02-06T19:55:48.502Z,15.40
2019-02-06T19:58:18.286Z,17.03
2019-02-06T20:00:48.594Z,21.17
2019-02-06T20:03:18.709Z,22.67
2019-02-06T20:05:48.562Z,20.20
2019-02-06T20:08:18.359Z,21.33
2019-02-06T20:10:49.217Z,20.43
2019-02-06T20:13:18.984Z,19.93
2019-02-06T20:15:48.983Z,25.03
2019-02-06T20:18:18.789Z,27.83
2019-02-06T20:20:48.697Z,24.83
2019-02-06T20:23:18.461Z,23.03
2019-02-06T20:25:48.392Z,26.90
2019-02-06T20:28:18.082Z,31.13
2019-02-06T20:30:48.006Z,27.97
2019-02-06T20:33:18.262Z,28.03
2019-02-06T20:35:48.054Z,27.23
2019-02-06T20:38:17.839Z,23.37
2019-02-06T20:40:47.700Z,25.23
2019-02-06T20:43:22.127Z,33.20
2019-02-06T20:45:48.895Z,30.37
2019-02-06T20:48:18.596Z,29.13
2019-02-06T20:50:48.313Z,32.83
2019-02-06T20:53:18.011Z,35.53
2019-02-06T20:55:47.711Z,30.50
2019-02-06T20:58:17.447Z,36.70
2019-02-06T21:00:47.914Z,38.23
2019-02-06T21:03:17.695Z,36.27
2019-02-06T21:05:48.854Z,35.13
2019-02-06T21:08:19.061Z,33.93
2019-02-06T21:10:48.851Z,39.13
2019-02-06T21:13:19.102Z,34.33
2019-02-06T21:15:48.937Z,32.83
2019-02-06T21:18:18.739Z,37.80
2019-02-06T21:20:48.498Z,41.27
2019-02-06T21:23:18.310Z,34.57
2019-02-06T21:25:48.082Z,36.50
2019-02-06T21:28:18.822Z,41.50
2019-02-06T21:30:48.810Z,41.60
2019-02-06T21:33:18.527Z,37.30
2019-02-06T21:35:48.271Z,37.27
2019-02-06T21:38:18.097Z,36.47
2019-02-06T21:40:47.798Z,38.60
2019-02-06T21:43:17.583Z,44.43
2019-02-06T21:45:47.586Z,47.43
2019-02-06T21:48:17.527Z,46.30
2019-02-06T21:50:47.319Z,42.67
2019-02-06T21:53:17.026Z,38.97
2019-02-06T21:55:46.730Z,47.67
2019-02-06T21:58:16.482Z,47.17
2019-02-06T22:00:46.371Z,48.10
2019-02-06T22:03:16.434Z,47.67
2019-02-06T22:05:46.134Z,46.37
2019-02-06T22:08:15.854Z,49.20
2019-02-06T22:10:45.665Z,49.07
2019-02-06T22:13:15.466Z,47.77
2019-02-06T22:15:45.242Z,51.67
2019-02-06T22:18:15.016Z,60.90
2019-02-06T22:20:44.798Z,45.77
2019-02-06T22:23:14.566Z,52.90
2019-02-06T22:25:44.285Z,48.83
2019-02-06T22:28:15.722Z,58.17
2019-02-06T22:30:45.570Z,57.73
2019-02-06T22:33:15.405Z,59.17
2019-02-06T22:35:45.162Z,60.03
2019-02-06T22:38:14.874Z,60.23
2019-02-06T22:40:44.659Z,60.97
2019-02-06T22:43:14.423Z,60.13
2019-02-06T22:45:44.642Z,58.13
2019-02-06T22:48:14.396Z,58.67
2019-02-06T22:50:44.078Z,59.87
2019-02-06T22:53:13.842Z,57.97
2019-02-06T22:55:43.595Z,58.70
2019-02-06T22:58:13.373Z,53.57
2019-02-06T23:01:17.320Z,49.57
2019-02-06T23:03:48.146Z,41.20
2019-02-06T23:06:17.899Z,44.50
2019-02-06T23:08:47.806Z,41.73
2019-02-06T23:11:17.634Z,44.97
2019-02-06T23:13:47.385Z,40.20
2019-02-06T23:16:17.249Z,36.23
2019-02-06T23:18:47.026Z,30.87
2019-02-06T23:21:16.855Z,28.87
2019-02-06T23:23:46.689Z,27.30
2019-02-06T23:26:16.380Z,38.27
2019-02-06T23:28:46.213Z,29.27
2019-02-06T23:31:15.997Z,25.80
2019-02-06T23:33:45.726Z,28.83
2019-02-06T23:36:15.815Z,25.47
2019-02-06T23:38:45.569Z,27.07
2019-02-06T23:41:15.406Z,29.10
2019-02-06T23:43:45.251Z,23.77
2019-02-06T23:46:15.086Z,24.50
2019-02-06T23:48:44.822Z,23.97
2019-02-06T23:51:14.567Z,27.23
2019-02-06T23:53:44.268Z,23.87
2019-02-06T23:56:13.985Z,19.77
2019-02-06T23:58:43.660Z,26.77
